createdAt,value
2019-02-25T00:01:30.267Z,102602.30
2019-02-25T00:06:37.531Z,102596.03
2019-02-25T00:11:44.596Z,102595.30
2019-02-25T00:16:51.688Z,102591.30
2019-02-25T00:21:58.804Z,102592.84
2019-02-25T00:27:05.889Z,102588.59
2019-02-25T00:32:12.925Z,102584.45
2019-02-25T00:37:20.009Z,102575.96
2019-02-25T00:42:27.142Z,102571.16
2019-02-25T00:53:51.117Z,102571.89
2019-02-25T00:58:58.565Z,102576.09
2019-02-25T01:04:05.720Z,102582.81
2019-02-25T01:09:13.946Z,102582.81
2019-02-25T01:14:21.295Z,102595.61
2019-02-25T01:19:28.403Z,102589.17
2019-02-25T01:24:35.499Z,102577.70
2019-02-25T01:29:42.560Z,102568.92
2019-02-25T01:34:49.713Z,102566.80
2019-02-25T01:39:56.786Z,102546.84
2019-02-25T01:45:04.203Z,102554.33
2019-02-25T01:50:11.531Z,102556.28
2019-02-25T01:55:19.585Z,102552.13
2019-02-25T02:00:26.799Z,102538.56
2019-02-25T02:05:33.907Z,102546.92
2019-02-25T02:10:40.904Z,102544.98
2019-02-25T02:15:47.921Z,102545.47
2019-02-25T02:20:54.973Z,102548.91
2019-02-25T02:26:02.036Z,102555.37
2019-02-25T02:31:09.107Z,102538.77
2019-02-25T02:36:16.301Z,102538.77
2019-02-25T02:41:23.363Z,102556.38
2019-02-25T02:46:52.869Z,102559.25
2019-02-25T02:51:59.874Z,102554.92
2019-02-25T02:57:06.996Z,102564.35
2019-02-25T03:02:14.096Z,102557.04
2019-02-25T03:07:21.149Z,102560.66
2019-02-25T03:12:28.598Z,102565.45
2019-02-25T03:17:35.684Z,102561.30
2019-02-25T03:22:42.965Z,102568.09
2019-02-25T03:27:49.953Z,102567.81
2019-02-25T03:32:56.975Z,102557.61
2019-02-25T03:38:04.081Z,102564.88
2019-02-25T03:43:11.074Z,102575.77
2019-02-25T03:48:18.114Z,102570.75
2019-02-25T03:53:25.204Z,102572.48
2019-02-25T03:58:32.264Z,102563.59
2019-02-25T04:03:39.822Z,102553.98
2019-02-25T04:08:46.948Z,102555.31
2019-02-25T04:13:53.991Z,102562.63
2019-02-25T04:19:01.143Z,102556.64
2019-02-25T04:24:08.249Z,102554.50
2019-02-25T04:29:15.295Z,102547.20
2019-02-25T04:34:22.303Z,102548.14
2019-02-25T04:39:29.321Z,102549.59
2019-02-25T04:44:36.481Z,102548.53
2019-02-25T04:49:43.475Z,102544.38
2019-02-25T04:54:50.490Z,102548.78
2019-02-25T04:59:57.532Z,102547.09
2019-02-25T05:05:04.684Z,102549.85
2019-02-25T05:10:12.841Z,102544.41
2019-02-25T05:15:21.881Z,102545.02
2019-02-25T05:20:29.053Z,102540.40
2019-02-25T05:25:36.084Z,102542.16
2019-02-25T05:30:43.114Z,102537.72
2019-02-25T05:35:50.157Z,102542.37
2019-02-25T05:40:57.262Z,102541.08
2019-02-25T05:46:04.376Z,102534.95
2019-02-25T05:51:11.392Z,102548.03
2019-02-25T05:56:18.430Z,102558.08
2019-02-25T06:01:25.465Z,102557.97
2019-02-25T06:06:32.521Z,102565.37
2019-02-25T06:11:39.540Z,102559.95
2019-02-25T06:16:46.571Z,102570.69
2019-02-25T06:21:53.693Z,102573.13
2019-02-25T06:27:02.116Z,102567.32
2019-02-25T06:32:09.212Z,102572.73
2019-02-25T06:37:16.206Z,102568.91
2019-02-25T06:42:23.749Z,102570.62
2019-02-25T06:47:31.152Z,102576.13
2019-02-25T06:52:38.188Z,102570.59
2019-02-25T06:57:45.419Z,102570.41
2019-02-25T07:02:52.574Z,102567.81
2019-02-25T07:08:04.652Z,102576.17
2019-02-25T07:13:45.870Z,102595.53
2019-02-25T07:19:23.718Z,102593.39
2019-02-25T07:24:52.587Z,102594.41
2019-02-25T07:30:14.147Z,102598.70
2019-02-25T07:35:49.061Z,102607.62
2019-02-25T07:41:12.379Z,102612.42
2019-02-25T07:46:31.863Z,102622.77
2019-02-25T07:51:47.988Z,102615.19
2019-02-25T07:57:11.035Z,102596.53
2019-02-25T08:02:35.796Z,102598.81
2019-02-25T08:08:01.966Z,102614.28
2019-02-25T08:13:23.098Z,102625.81
2019-02-25T08:18:51.882Z,102623.53
2019-02-25T08:24:30.146Z,102645.11
2019-02-25T08:30:07.383Z,102635.61
2019-02-25T08:35:57.505Z,102625.86
2019-02-25T08:41:34.039Z,102635.70
2019-02-25T08:46:48.507Z,102635.11
2019-02-25T08:51:55.524Z,102623.79
2019-02-25T08:57:02.868Z,102628.50
2019-02-25T09:02:10.033Z,102637.42
2019-02-25T09:07:17.071Z,102642.83
2019-02-25T09:12:24.152Z,102640.47
2019-02-25T09:17:31.220Z,102647.29
2019-02-25T09:22:38.220Z,102630.38
2019-02-25T09:27:45.238Z,102639.41
2019-02-25T09:32:52.810Z,102638.48
2019-02-25T09:38:00.128Z,102632.61
2019-02-25T09:43:07.199Z,102640.48
2019-02-25T09:53:46.564Z,102624.46
2019-02-25T09:58:53.725Z,102625.43
2019-02-25T10:04:00.679Z,102619.16
2019-02-25T10:09:08.415Z,102634.39
2019-02-25T10:14:15.375Z,102630.84
2019-02-25T10:19:22.420Z,102625.29
2019-02-25T10:24:29.423Z,102623.67
2019-02-25T10:29:36.370Z,102640.02
2019-02-25T10:34:43.330Z,102628.23
2019-02-25T10:39:51.455Z,102626.32
2019-02-25T10:44:58.608Z,102622.64
2019-02-25T10:50:07.450Z,102623.13
2019-02-25T10:55:24.499Z,102619.55
2019-02-25T11:00:31.636Z,102619.30
2019-02-25T11:05:39.753Z,102609.26
2019-02-25T11:11:00.471Z,102604.28
2019-02-25T11:16:07.444Z,102600.51
2019-02-25T11:21:14.561Z,102593.59
2019-02-25T11:26:21.531Z,102567.16
2019-02-25T11:31:29.177Z,102549.94
2019-02-25T11:36:36.315Z,102537.80
2019-02-25T11:41:43.443Z,102524.67
2019-02-25T11:46:50.432Z,102515.34
2019-02-25T11:51:57.442Z,102502.06
2019-02-25T11:57:05.066Z,102509.05
2019-02-25T12:02:12.091Z,102482.38
2019-02-25T12:07:25.049Z,102481.20
2019-02-25T12:12:32.003Z,102452.38
2019-02-25T12:17:38.953Z,102456.41
2019-02-25T12:22:46.093Z,102468.73
2019-02-25T12:27:53.180Z,102468.75
2019-02-25T12:33:00.133Z,102462.62
2019-02-25T12:38:07.125Z,102459.33
2019-02-25T12:43:14.144Z,102440.48
2019-02-25T12:48:22.736Z,102430.40
2019-02-25T12:53:29.853Z,102414.39
2019-02-25T12:58:37.186Z,102409.41
2019-02-25T13:03:44.151Z,102417.95
2019-02-25T13:08:51.126Z,102411.88
2019-02-25T13:13:58.092Z,102402.45
2019-02-25T13:19:05.589Z,102391.47
2019-02-25T13:24:12.637Z,102394.63
2019-02-25T13:29:19.592Z,102385.03
2019-02-25T13:34:26.636Z,102376.63
2019-02-25T13:39:33.609Z,102364.77
2019-02-25T13:44:40.581Z,102357.84
2019-02-25T13:49:47.550Z,102353.79
2019-02-25T13:54:54.574Z,102357.00
2019-02-25T14:00:01.592Z,102353.50
2019-02-25T14:05:08.805Z,102340.66
2019-02-25T14:10:16.218Z,102334.48
2019-02-25T14:15:23.816Z,102334.45
2019-02-25T14:20:30.821Z,102331.05
2019-02-25T14:25:38.439Z,102332.01
2019-02-25T14:30:46.926Z,102322.60
2019-02-25T14:35:54.064Z,102317.80
2019-02-25T14:41:01.908Z,102321.33
2019-02-25T14:46:11.800Z,102317.36
2019-02-25T14:51:18.607Z,102315.44
2019-02-25T14:56:25.723Z,102302.16
2019-02-25T15:01:32.890Z,102312.70
2019-02-25T15:06:39.977Z,102316.83
2019-02-25T15:11:47.120Z,102312.31
2019-02-25T15:16:56.443Z,102308.17
2019-02-25T15:22:03.085Z,102310.05
2019-02-25T15:27:11.031Z,102300.65
2019-02-25T15:32:18.771Z,102289.69
2019-02-25T15:37:25.833Z,102285.81
2019-02-25T15:42:36.118Z,102285.28
2019-02-25T15:47:42.475Z,102284.35
2019-02-25T15:52:51.008Z,102282.00
2019-02-25T15:57:58.292Z,102277.25
2019-02-25T16:03:08.501Z,102273.55
2019-02-25T16:08:20.946Z,102273.66
2019-02-25T16:13:26.240Z,102272.06
2019-02-25T16:18:35.277Z,102282.48
2019-02-25T16:23:45.230Z,102275.31
2019-02-25T16:28:53.186Z,102280.87
2019-02-25T16:34:00.978Z,102283.70
2019-02-25T16:39:10.118Z,102292.91
2019-02-25T16:44:18.424Z,102291.78
2019-02-25T16:49:26.938Z,102302.81
2019-02-25T16:54:34.577Z,102309.84
2019-02-25T16:59:41.810Z,102313.22
2019-02-25T17:04:49.305Z,102312.38
2019-02-25T17:09:57.451Z,102316.97
2019-02-25T17:15:10.134Z,102323.69
2019-02-25T17:20:18.009Z,102317.25
2019-02-25T17:25:29.009Z,102315.07
2019-02-25T17:30:34.043Z,102317.38
2019-02-25T17:35:43.494Z,102312.13
2019-02-25T17:40:50.385Z,102319.15
2019-02-25T17:45:58.262Z,102311.92
2019-02-25T17:51:06.068Z,102311.48
2019-02-25T17:56:13.009Z,102313.62
2019-02-25T18:01:21.999Z,102310.33
2019-02-25T18:06:30.208Z,102311.54
2019-02-25T18:11:39.395Z,102308.03
2019-02-25T18:16:48.832Z,102304.98
2019-02-25T18:21:58.292Z,102312.20
2019-02-25T18:27:07.455Z,102310.52
2019-02-25T18:32:14.630Z,102318.58
2019-02-25T18:37:21.984Z,102320.40
2019-02-25T18:42:28.936Z,102320.88
2019-02-25T18:47:37.127Z,102315.16
2019-02-25T18:52:44.791Z,102312.93
2019-02-25T18:57:52.657Z,102311.20
2019-02-25T19:03:00.341Z,102314.42
2019-02-25T19:08:14.483Z,102308.13
2019-02-25T19:13:22.729Z,102305.97
2019-02-25T19:18:32.109Z,102303.11
2019-02-25T19:23:39.476Z,102296.27
2019-02-25T19:28:48.073Z,102285.36
2019-02-25T19:33:55.650Z,102293.56
2019-02-25T19:39:07.240Z,102290.13
2019-02-25T19:44:12.816Z,102288.00
2019-02-25T19:49:20.797Z,102293.45
2019-02-25T19:54:29.427Z,102298.55
2019-02-25T19:59:36.595Z,102287.78
2019-02-25T20:04:44.936Z,102291.40
2019-02-25T20:09:52.585Z,102284.91
2019-02-25T20:14:59.588Z,102280.95
2019-02-25T20:20:08.124Z,102279.97
2019-02-25T20:25:16.744Z,102285.81
2019-02-25T20:30:26.387Z,102286.02
2019-02-25T20:35:33.518Z,102289.94
2019-02-25T20:40:40.594Z,102286.00
2019-02-25T20:45:52.184Z,102291.44
2019-02-25T20:50:59.669Z,102277.41
2019-02-25T20:56:06.339Z,102286.25
2019-02-25T21:01:14.075Z,102293.66
2019-02-25T21:06:22.355Z,102296.98
2019-02-25T21:11:29.324Z,102304.70
2019-02-25T21:16:36.326Z,102305.23
2019-02-25T21:21:43.415Z,102307.54
2019-02-25T21:26:50.412Z,102311.39
2019-02-25T21:31:58.787Z,102310.94
2019-02-25T21:37:07.360Z,102314.86
2019-02-25T21:42:15.409Z,102314.84
2019-02-25T21:47:24.299Z,102297.19
2019-02-25T21:52:32.794Z,102296.84
2019-02-25T21:57:40.446Z,102279.98
2019-02-25T22:02:50.276Z,102279.92
2019-02-25T22:07:59.421Z,102261.41
2019-02-25T22:13:08.697Z,102247.41
2019-02-25T22:18:14.345Z,102237.68
2019-02-25T22:23:22.204Z,102238.08
2019-02-25T22:28:30.917Z,102241.02
2019-02-25T22:33:38.810Z,102230.54
2019-02-25T22:38:45.765Z,102217.58
2019-02-25T22:43:52.739Z,102215.76
2019-02-25T22:49:00.926Z,102221.11
2019-02-25T22:54:10.093Z,102220.17
2019-02-25T22:59:20.042Z,102214.64
2019-02-25T23:04:26.525Z,102213.57
2019-02-25T23:09:33.487Z,102212.43
2019-02-25T23:14:42.493Z,102211.08
2019-02-25T23:19:49.167Z,102214.80
2019-02-25T23:24:56.109Z,102213.69
2019-02-25T23:30:08.362Z,102223.19
2019-02-25T23:35:16.469Z,102224.55
2019-02-25T23:40:23.442Z,102227.20
2019-02-25T23:45:30.570Z,102215.96
2019-02-25T23:50:37.559Z,102217.73
2019-02-25T23:55:47.090Z,102227.81
